createdAt,value
2019-02-06T00:00:26.262Z,10.27
2019-02-06T00:02:45.744Z,9.13
2019-02-06T00:05:15.425Z,9.40
2019-02-06T00:07:44.988Z,9.47
2019-02-06T00:10:14.298Z,10.03
2019-02-06T00:12:43.111Z,10.33
2019-02-06T00:15:12.036Z,9.50
2019-02-06T00:17:40.846Z,9.67
2019-02-06T00:20:09.732Z,9.53
2019-02-06T00:22:38.490Z,9.83
2019-02-06T00:25:07.847Z,9.60
2019-02-06T00:27:36.606Z,9.10
2019-02-06T00:30:06.957Z,10.07
2019-02-06T00:32:35.789Z,10.03
2019-02-06T00:35:05.531Z,10.37
2019-02-06T00:37:34.367Z,9.93
2019-02-06T00:40:04.925Z,10.23
2019-02-06T00:42:33.697Z,10.27
2019-02-06T00:45:02.997Z,10.13
2019-02-06T00:47:31.765Z,9.80
2019-02-06T00:50:00.571Z,10.40
2019-02-06T00:52:29.403Z,9.50
2019-02-06T00:54:58.396Z,10.27
2019-02-06T00:57:27.222Z,9.67
2019-02-06T00:59:58.463Z,10.20
2019-02-06T01:02:26.569Z,10.47
2019-02-06T01:04:55.444Z,10.37
2019-02-06T01:07:24.358Z,10.57
2019-02-06T01:09:53.471Z,10.33
2019-02-06T01:12:22.452Z,11.20
2019-02-06T01:14:51.354Z,11.40
2019-02-06T01:17:20.252Z,10.00
2019-02-06T01:19:49.014Z,10.10
2019-02-06T01:22:17.893Z,11.77
2019-02-06T01:24:46.668Z,10.77
2019-02-06T01:27:15.417Z,11.47
2019-02-06T01:29:44.178Z,11.53
2019-02-06T01:32:12.925Z,11.97
2019-02-06T01:34:41.769Z,12.17
2019-02-06T01:37:10.575Z,12.60
2019-02-06T01:39:39.341Z,11.73
2019-02-06T01:42:08.450Z,11.20
2019-02-06T01:44:37.302Z,12.30
2019-02-06T01:47:06.040Z,12.03
2019-02-06T01:49:34.815Z,12.07
2019-02-06T01:52:03.637Z,11.80
2019-02-06T01:54:32.633Z,12.37
2019-02-06T01:57:01.364Z,12.77
2019-02-06T01:59:30.488Z,11.23
2019-02-06T02:01:59.607Z,12.50
2019-02-06T02:04:28.407Z,13.13
2019-02-06T02:06:57.361Z,12.80
2019-02-06T02:09:26.205Z,12.73
2019-02-06T02:11:55.615Z,12.50
2019-02-06T02:14:25.002Z,12.70
2019-02-06T02:16:53.819Z,13.03
2019-02-06T02:19:22.636Z,12.87
2019-02-06T02:21:51.475Z,13.57
2019-02-06T02:24:20.291Z,13.93
2019-02-06T02:26:49.126Z,13.53
2019-02-06T02:29:17.863Z,12.63
2019-02-06T02:31:46.634Z,13.27
2019-02-06T02:34:15.372Z,13.30
2019-02-06T02:36:47.135Z,12.90
2019-02-06T02:39:15.954Z,12.80
2019-02-06T02:41:44.887Z,13.33
2019-02-06T02:44:13.764Z,11.87
2019-02-06T02:46:42.609Z,12.10
2019-02-06T02:49:11.425Z,12.33
2019-02-06T02:51:40.193Z,13.30
2019-02-06T02:54:08.992Z,13.67
2019-02-06T02:56:37.831Z,13.00
2019-02-06T02:59:06.606Z,13.57
2019-02-06T03:01:35.739Z,12.80
2019-02-06T03:04:04.499Z,12.40
2019-02-06T03:06:33.407Z,12.47
2019-02-06T03:09:02.217Z,12.57
2019-02-06T03:11:31.024Z,12.67
2019-02-06T03:13:59.865Z,12.70
2019-02-06T03:16:29.071Z,12.63
2019-02-06T03:18:57.919Z,12.90
2019-02-06T03:21:26.727Z,12.67
2019-02-06T03:23:55.566Z,13.20
2019-02-06T03:26:24.304Z,12.67
2019-02-06T03:28:53.153Z,13.23
2019-02-06T03:31:22.031Z,12.67
2019-02-06T03:33:50.875Z,13.23
2019-02-06T03:36:19.750Z,12.87
2019-02-06T03:38:48.860Z,13.13
2019-02-06T03:41:17.607Z,13.30
2019-02-06T03:43:46.472Z,13.33
2019-02-06T03:46:15.354Z,12.70
2019-02-06T03:48:44.458Z,12.23
2019-02-06T03:51:13.207Z,12.27
2019-02-06T03:53:42.177Z,12.17
2019-02-06T03:56:11.123Z,12.67
2019-02-06T03:58:40.004Z,11.17
2019-02-06T04:01:11.367Z,12.07
2019-02-06T04:03:39.422Z,11.97
2019-02-06T04:06:08.242Z,11.33
2019-02-06T04:08:37.131Z,11.77
2019-02-06T04:11:06.029Z,11.47
2019-02-06T04:13:34.849Z,11.33
2019-02-06T04:16:03.849Z,11.47
2019-02-06T04:18:32.740Z,11.93
2019-02-06T04:21:01.857Z,12.23
2019-02-06T04:23:30.783Z,11.57
2019-02-06T04:25:59.689Z,11.60
2019-02-06T04:28:28.562Z,12.30
2019-02-06T04:30:57.547Z,11.30
2019-02-06T04:33:26.361Z,10.60
2019-02-06T04:35:55.503Z,11.57
2019-02-06T04:38:24.308Z,11.90
2019-02-06T04:40:53.150Z,11.30
2019-02-06T04:43:21.886Z,11.70
2019-02-06T04:45:50.905Z,12.10
2019-02-06T04:48:19.723Z,12.00
2019-02-06T04:50:48.526Z,12.87
2019-02-06T04:53:17.314Z,11.93
2019-02-06T04:55:46.079Z,12.80
2019-02-06T04:58:14.898Z,12.87
2019-02-06T05:00:43.660Z,13.20
2019-02-06T05:03:12.489Z,11.83
2019-02-06T05:05:42.846Z,12.53
2019-02-06T05:08:11.850Z,12.87
2019-02-06T05:10:40.613Z,12.80
2019-02-06T05:13:09.417Z,11.20
2019-02-06T05:15:38.176Z,12.43
2019-02-06T05:18:06.924Z,11.77
2019-02-06T05:20:36.711Z,12.63
2019-02-06T05:23:07.246Z,12.30
2019-02-06T05:25:36.102Z,11.43
2019-02-06T05:28:05.146Z,12.93
2019-02-06T05:30:33.967Z,13.37
2019-02-06T05:33:02.800Z,12.67
2019-02-06T05:35:31.553Z,12.23
2019-02-06T05:38:00.457Z,13.33
2019-02-06T05:40:29.374Z,13.03
2019-02-06T05:42:58.200Z,12.30
2019-02-06T05:45:27.014Z,11.37
2019-02-06T05:47:55.842Z,13.43
2019-02-06T05:50:24.579Z,12.50
2019-02-06T05:52:53.489Z,12.87
2019-02-06T05:55:22.436Z,12.63
2019-02-06T05:57:51.342Z,12.57
2019-02-06T06:00:21.151Z,14.60
2019-02-06T06:02:49.994Z,13.73
2019-02-06T06:05:18.817Z,12.10
2019-02-06T06:07:47.700Z,12.70
2019-02-06T06:10:17.181Z,13.43
2019-02-06T06:12:46.862Z,12.73
2019-02-06T06:15:18.874Z,12.30
2019-02-06T06:17:47.716Z,12.67
2019-02-06T06:20:18.063Z,12.50
2019-02-06T06:22:47.300Z,12.90
2019-02-06T06:25:17.288Z,11.77
2019-02-06T06:27:46.512Z,13.10
2019-02-06T06:30:16.322Z,13.00
2019-02-06T06:32:45.168Z,12.67
2019-02-06T06:35:13.980Z,13.20
2019-02-06T06:37:43.024Z,13.23
2019-02-06T06:40:16.108Z,12.53
2019-02-06T06:42:45.249Z,13.93
2019-02-06T06:45:15.532Z,13.50
2019-02-06T06:47:44.418Z,13.17
2019-02-06T06:50:17.381Z,12.73
2019-02-06T06:52:46.264Z,13.00
2019-02-06T06:55:15.494Z,13.43
2019-02-06T06:57:44.680Z,13.03
2019-02-06T07:00:14.985Z,13.20
2019-02-06T07:02:43.788Z,12.97
2019-02-06T07:05:13.381Z,12.10
2019-02-06T07:07:42.190Z,12.50
2019-02-06T07:10:12.416Z,12.30
2019-02-06T07:12:41.516Z,13.20
2019-02-06T07:15:11.899Z,14.10
2019-02-06T07:17:40.718Z,13.73
2019-02-06T07:20:11.122Z,14.70
2019-02-06T07:22:39.928Z,13.73
2019-02-06T07:25:09.763Z,14.00
2019-02-06T07:27:38.806Z,14.20
2019-02-06T07:30:09.239Z,14.13
2019-02-06T07:32:37.985Z,14.90
2019-02-06T07:35:06.845Z,12.63
2019-02-06T07:37:35.591Z,13.83
2019-02-06T07:40:06.219Z,13.33
2019-02-06T07:42:35.240Z,12.33
2019-02-06T07:45:05.779Z,12.00
2019-02-06T07:47:34.669Z,12.47
2019-02-06T07:50:04.985Z,13.00
2019-02-06T07:52:33.801Z,11.97
2019-02-06T07:55:03.000Z,13.10
2019-02-06T07:57:32.098Z,13.10
2019-02-06T08:00:00.849Z,12.87
2019-02-06T08:02:29.668Z,13.43
2019-02-06T08:04:58.560Z,13.57
2019-02-06T08:07:27.375Z,13.00
2019-02-06T08:09:56.262Z,12.63
2019-02-06T08:12:25.237Z,12.60
2019-02-06T08:14:54.322Z,12.90
2019-02-06T08:17:23.179Z,12.93
2019-02-06T08:19:52.124Z,12.47
2019-02-06T08:22:20.914Z,12.90
2019-02-06T08:24:49.794Z,12.70
2019-02-06T08:27:18.628Z,12.13
2019-02-06T08:29:47.700Z,12.53
2019-02-06T08:32:16.585Z,13.43
2019-02-06T08:34:49.888Z,13.60
2019-02-06T08:37:21.852Z,13.00
2019-02-06T08:39:50.598Z,13.00
2019-02-06T08:42:19.453Z,13.50
2019-02-06T08:44:48.259Z,11.77
2019-02-06T08:47:17.074Z,12.87
2019-02-06T08:49:45.841Z,13.17
2019-02-06T08:52:14.608Z,12.20
2019-02-06T08:54:43.377Z,12.43
2019-02-06T08:57:12.275Z,12.67
2019-02-06T08:59:41.319Z,12.90
2019-02-06T09:02:10.126Z,12.33
2019-02-06T09:04:38.889Z,13.40
2019-02-06T09:07:07.710Z,13.17
2019-02-06T09:09:36.530Z,12.67
2019-02-06T09:12:05.405Z,12.20
2019-02-06T09:14:34.415Z,12.40
2019-02-06T09:17:03.320Z,12.60
2019-02-06T09:19:32.085Z,12.60
2019-02-06T09:22:00.891Z,12.23
2019-02-06T09:24:29.689Z,11.30
2019-02-06T09:26:58.779Z,12.77
2019-02-06T09:29:27.610Z,12.03
2019-02-06T09:31:59.348Z,11.10
2019-02-06T09:34:27.385Z,13.07
2019-02-06T09:36:56.193Z,12.17
2019-02-06T09:39:25.064Z,11.60
2019-02-06T09:41:53.794Z,12.30
2019-02-06T09:44:22.625Z,11.57
2019-02-06T09:46:51.444Z,11.03
2019-02-06T09:49:21.093Z,11.97
2019-02-06T09:51:49.912Z,11.40
2019-02-06T09:54:18.740Z,12.67
2019-02-06T09:56:50.512Z,12.93
2019-02-06T09:59:18.081Z,11.33
2019-02-06T10:01:46.922Z,11.90
2019-02-06T10:04:15.840Z,11.73
2019-02-06T10:06:44.663Z,11.63
2019-02-06T10:09:22.521Z,12.53
2019-02-06T10:11:44.026Z,12.23
2019-02-06T10:14:12.902Z,12.07
2019-02-06T10:16:43.209Z,12.00
2019-02-06T10:19:12.091Z,11.87
2019-02-06T10:21:40.909Z,12.33
2019-02-06T10:24:09.699Z,11.73
2019-02-06T10:26:38.677Z,11.27
2019-02-06T10:29:07.683Z,11.23
2019-02-06T10:31:37.479Z,11.10
2019-02-06T10:34:06.610Z,12.43
2019-02-06T10:36:35.503Z,11.43
2019-02-06T10:39:05.903Z,11.90
2019-02-06T10:41:34.792Z,12.07
2019-02-06T10:44:03.630Z,10.80
2019-02-06T10:46:34.499Z,11.63
2019-02-06T10:49:03.717Z,11.23
2019-02-06T10:51:32.600Z,12.00
2019-02-06T10:54:01.515Z,11.10
2019-02-06T10:56:30.423Z,11.63
2019-02-06T10:58:59.192Z,11.33
2019-02-06T11:01:27.937Z,11.40
2019-02-06T11:03:56.699Z,10.83
2019-02-06T11:06:25.509Z,11.13
2019-02-06T11:08:54.276Z,11.17
2019-02-06T11:11:23.032Z,12.30
2019-02-06T11:13:51.867Z,11.47
2019-02-06T11:16:20.753Z,11.47
2019-02-06T11:18:49.602Z,11.33
2019-02-06T11:21:18.696Z,10.60
2019-02-06T11:23:47.516Z,11.90
2019-02-06T11:26:16.354Z,11.27
2019-02-06T11:28:45.158Z,11.53
2019-02-06T11:31:13.933Z,11.03
2019-02-06T11:33:42.736Z,11.40
2019-02-06T11:36:11.500Z,11.23
2019-02-06T11:38:40.304Z,11.33
2019-02-06T11:41:09.306Z,11.73
2019-02-06T11:43:38.124Z,10.77
2019-02-06T11:46:09.060Z,11.40
2019-02-06T11:48:37.305Z,11.43
2019-02-06T11:51:06.408Z,11.30
2019-02-06T11:53:35.310Z,11.77
2019-02-06T11:56:04.140Z,11.70
2019-02-06T11:58:33.024Z,10.37
2019-02-06T12:01:01.914Z,10.57
2019-02-06T12:03:30.723Z,10.23
2019-02-06T12:05:59.488Z,10.97
2019-02-06T12:08:31.155Z,10.00
2019-02-06T12:10:59.182Z,10.43
2019-02-06T12:13:27.928Z,11.17
2019-02-06T12:15:56.840Z,10.70
2019-02-06T12:18:25.647Z,10.13
2019-02-06T12:20:54.491Z,10.40
2019-02-06T12:23:31.887Z,10.13
2019-02-06T12:25:54.252Z,10.60
2019-02-06T12:28:23.084Z,10.63
2019-02-06T12:30:51.824Z,10.63
2019-02-06T12:33:20.664Z,11.93
2019-02-06T12:35:49.481Z,10.47
2019-02-06T12:38:18.239Z,10.63
2019-02-06T12:40:47.504Z,10.13
2019-02-06T12:43:16.555Z,9.90
2019-02-06T12:45:45.336Z,10.17
2019-02-06T12:48:14.158Z,10.27
2019-02-06T12:50:43.116Z,11.20
2019-02-06T12:53:11.996Z,9.63
2019-02-06T12:55:41.061Z,10.30
2019-02-06T12:58:09.891Z,9.37
2019-02-06T13:00:43.052Z,10.27
2019-02-06T13:03:12.037Z,9.93
2019-02-06T13:05:40.848Z,9.87
2019-02-06T13:08:10.504Z,10.13
2019-02-06T13:10:39.240Z,10.27
2019-02-06T13:13:08.014Z,9.70
2019-02-06T13:15:37.034Z,10.97
2019-02-06T13:18:05.977Z,10.30
2019-02-06T13:20:35.120Z,9.93
2019-02-06T13:23:04.547Z,10.50
2019-02-06T13:25:33.419Z,11.00
2019-02-06T13:28:02.303Z,10.60
2019-02-06T13:30:37.600Z,10.07
2019-02-06T13:33:06.898Z,10.10
2019-02-06T13:35:36.240Z,9.63
2019-02-06T13:38:05.224Z,10.43
2019-02-06T13:40:44.817Z,10.17
2019-02-06T13:43:04.964Z,10.27
2019-02-06T13:45:35.241Z,10.67
2019-02-06T13:48:04.247Z,9.13
2019-02-06T13:50:33.147Z,9.97
2019-02-06T13:53:01.959Z,10.47
2019-02-06T13:55:30.862Z,10.27
2019-02-06T13:57:59.611Z,9.77
2019-02-06T14:00:29.981Z,9.27
2019-02-06T14:02:58.887Z,8.93
2019-02-06T14:05:28.585Z,8.50
2019-02-06T14:07:58.488Z,8.60
2019-02-06T14:10:28.076Z,8.30
2019-02-06T14:12:57.019Z,8.03
2019-02-06T14:15:44.653Z,8.40
2019-02-06T14:18:13.486Z,7.60
2019-02-06T14:20:42.982Z,8.30
2019-02-06T14:23:19.281Z,8.07
2019-02-06T14:25:49.816Z,7.47
2019-02-06T14:28:28.896Z,7.77
2019-02-06T14:31:05.041Z,7.80
2019-02-06T14:33:53.480Z,6.90
2019-02-06T14:36:23.842Z,7.00
2019-02-06T14:38:56.791Z,7.47
2019-02-06T14:41:32.884Z,7.30
2019-02-06T14:44:15.538Z,6.73
2019-02-06T14:46:51.602Z,5.73
2019-02-06T14:49:30.980Z,7.50
2019-02-06T14:52:10.906Z,6.33
2019-02-06T14:54:46.999Z,6.30
2019-02-06T14:57:17.363Z,6.37
2019-02-06T14:59:50.298Z,6.70
2019-02-06T15:02:20.981Z,6.93
2019-02-06T15:05:03.196Z,6.70
2019-02-06T15:07:51.692Z,6.80
2019-02-06T15:10:22.470Z,7.60
2019-02-06T15:13:09.414Z,5.73
2019-02-06T15:15:56.369Z,6.33
2019-02-06T15:18:42.055Z,5.50
2019-02-06T15:21:18.223Z,5.87
2019-02-06T15:23:57.385Z,6.33
2019-02-06T15:26:33.747Z,5.37
2019-02-06T15:29:07.149Z,6.10
2019-02-06T15:31:46.276Z,5.40
2019-02-06T15:34:22.597Z,5.73
2019-02-06T15:37:01.668Z,5.40
2019-02-06T15:39:47.240Z,6.27
2019-02-06T15:42:20.523Z,5.83
2019-02-06T15:44:56.992Z,5.70
2019-02-06T15:47:27.295Z,6.33
2019-02-06T15:50:00.560Z,5.80
2019-02-06T15:52:49.063Z,6.23
2019-02-06T15:55:20.537Z,6.80
2019-02-06T15:57:53.926Z,6.80
2019-02-06T16:00:24.310Z,6.47
2019-02-06T16:02:54.688Z,6.60
2019-02-06T16:05:41.854Z,6.97
2019-02-06T16:08:15.134Z,6.43
2019-02-06T16:10:45.572Z,6.50
2019-02-06T16:13:32.207Z,6.53
2019-02-06T16:16:18.842Z,6.63
2019-02-06T16:18:49.212Z,6.53
2019-02-06T16:21:22.548Z,7.77
2019-02-06T16:23:55.542Z,6.83
2019-02-06T16:26:37.818Z,6.40
2019-02-06T16:29:08.144Z,6.27
2019-02-06T16:31:47.175Z,6.60
2019-02-06T16:34:32.403Z,6.50
2019-02-06T16:37:05.564Z,6.13
2019-02-06T16:39:44.851Z,6.80
2019-02-06T16:42:15.204Z,6.83
2019-02-06T16:44:54.684Z,6.67
2019-02-06T16:47:24.960Z,6.70
2019-02-06T16:49:55.414Z,6.90
2019-02-06T16:52:25.776Z,6.80
2019-02-06T16:54:58.830Z,6.73
2019-02-06T16:57:29.094Z,6.20
2019-02-06T17:00:15.906Z,6.37
2019-02-06T17:03:02.994Z,6.47
2019-02-06T17:05:33.351Z,6.93
2019-02-06T17:08:03.624Z,6.47
2019-02-06T17:10:43.190Z,6.43
2019-02-06T17:13:19.584Z,7.03
2019-02-06T17:15:55.697Z,7.03
2019-02-06T17:18:42.591Z,7.00
2019-02-06T17:21:18.592Z,7.00
2019-02-06T17:23:57.672Z,6.83
2019-02-06T17:26:28.069Z,7.50
2019-02-06T17:28:58.407Z,7.83
2019-02-06T17:31:29.007Z,7.40
2019-02-06T17:33:59.352Z,7.90
2019-02-06T17:36:46.250Z,7.17
2019-02-06T17:39:24.280Z,7.83
2019-02-06T17:41:57.220Z,7.90
2019-02-06T17:44:30.210Z,7.67
2019-02-06T17:47:00.513Z,7.90
2019-02-06T17:49:39.771Z,7.50
2019-02-06T17:52:10.170Z,7.03
2019-02-06T17:54:49.472Z,7.60
2019-02-06T17:57:18.514Z,8.00
2019-02-06T17:59:47.330Z,7.63
2019-02-06T18:02:16.177Z,7.43
2019-02-06T18:04:44.995Z,7.40
2019-02-06T18:07:14.016Z,7.07
2019-02-06T18:09:43.006Z,7.37
2019-02-06T18:12:12.049Z,6.80
2019-02-06T18:14:40.979Z,6.83
2019-02-06T18:17:10.062Z,6.90
2019-02-06T18:19:39.220Z,7.60
2019-02-06T18:22:08.078Z,6.37
2019-02-06T18:24:37.254Z,6.63
2019-02-06T18:27:09.095Z,6.57
2019-02-06T18:29:38.172Z,7.37
2019-02-06T18:32:11.473Z,6.33
2019-02-06T18:34:40.924Z,7.50
2019-02-06T18:37:09.827Z,6.67
2019-02-06T18:39:38.663Z,7.07
2019-02-06T18:42:07.919Z,7.40
2019-02-06T18:44:36.872Z,7.40
2019-02-06T18:47:05.921Z,7.10
2019-02-06T18:49:35.017Z,6.53
2019-02-06T18:52:05.072Z,7.00
2019-02-06T18:54:33.920Z,7.00
2019-02-06T18:57:02.894Z,7.80
2019-02-06T18:59:32.047Z,7.17
2019-02-06T19:02:00.984Z,8.50
2019-02-06T19:04:29.901Z,8.43
2019-02-06T19:06:59.106Z,8.50
2019-02-06T19:09:29.011Z,8.23
2019-02-06T19:11:58.248Z,7.77
2019-02-06T19:14:27.455Z,8.57
2019-02-06T19:16:56.547Z,8.37
2019-02-06T19:19:25.833Z,7.97
2019-02-06T19:21:55.033Z,7.57
2019-02-06T19:24:25.737Z,8.63
2019-02-06T19:26:56.351Z,8.53
2019-02-06T19:29:25.441Z,7.70
2019-02-06T19:31:56.186Z,8.33
2019-02-06T19:34:25.248Z,8.80
2019-02-06T19:36:54.141Z,8.10
2019-02-06T19:39:23.046Z,8.80
2019-02-06T19:41:52.140Z,8.77
2019-02-06T19:44:20.966Z,8.77
2019-02-06T19:46:50.086Z,8.57
2019-02-06T19:49:18.924Z,7.83
2019-02-06T19:51:47.912Z,8.50
2019-02-06T19:54:16.742Z,8.00
2019-02-06T19:56:45.694Z,8.53
2019-02-06T19:59:14.996Z,8.73
2019-02-06T20:01:43.996Z,8.40
2019-02-06T20:04:13.226Z,8.57
2019-02-06T20:06:42.052Z,8.10
2019-02-06T20:09:10.970Z,9.10
2019-02-06T20:11:40.042Z,9.03
2019-02-06T20:14:09.192Z,9.17
2019-02-06T20:16:38.182Z,9.03
2019-02-06T20:19:07.133Z,9.80
2019-02-06T20:21:36.048Z,9.40
2019-02-06T20:24:05.434Z,9.57
2019-02-06T20:26:34.274Z,9.80
2019-02-06T20:29:03.528Z,9.23
2019-02-06T20:31:33.273Z,10.10
2019-02-06T20:34:02.128Z,10.30
2019-02-06T20:36:30.947Z,10.30
2019-02-06T20:38:59.789Z,9.77
2019-02-06T20:41:28.643Z,10.20
2019-02-06T20:43:57.629Z,10.43
2019-02-06T20:46:26.519Z,10.53
2019-02-06T20:48:55.378Z,10.37
2019-02-06T20:51:24.297Z,11.20
2019-02-06T20:53:53.154Z,10.80
2019-02-06T20:56:22.099Z,10.27
2019-02-06T20:58:51.585Z,10.40
2019-02-06T21:01:20.564Z,10.33
2019-02-06T21:03:49.633Z,10.17
2019-02-06T21:06:18.539Z,11.13
2019-02-06T21:08:47.624Z,10.83
2019-02-06T21:11:16.516Z,10.90
2019-02-06T21:13:45.729Z,11.20
2019-02-06T21:16:14.563Z,10.07
2019-02-06T21:18:43.524Z,10.30
2019-02-06T21:21:12.496Z,10.93
2019-02-06T21:23:41.366Z,10.40
2019-02-06T21:26:10.274Z,11.70
2019-02-06T21:28:39.551Z,11.87
2019-02-06T21:31:08.457Z,10.93
2019-02-06T21:33:37.291Z,10.87
2019-02-06T21:36:06.134Z,10.73
2019-02-06T21:38:34.975Z,11.00
2019-02-06T21:41:03.966Z,10.53
2019-02-06T21:43:43.618Z,10.70
2019-02-06T21:46:03.332Z,10.00
2019-02-06T21:48:32.138Z,10.07
2019-02-06T21:51:00.985Z,10.27
2019-02-06T21:53:29.788Z,11.20
2019-02-06T21:55:58.650Z,11.23
2019-02-06T21:58:27.535Z,11.57
2019-02-06T22:00:57.704Z,10.43
2019-02-06T22:03:26.582Z,11.10
2019-02-06T22:05:55.526Z,10.90
2019-02-06T22:08:24.429Z,11.40
2019-02-06T22:10:53.341Z,11.30
2019-02-06T22:13:22.233Z,12.10
2019-02-06T22:15:51.479Z,12.23
2019-02-06T22:18:20.377Z,11.63
2019-02-06T22:20:49.263Z,12.10
2019-02-06T22:23:18.182Z,11.87
2019-02-06T22:25:46.994Z,12.43
2019-02-06T22:28:15.898Z,12.47
2019-02-06T22:30:44.787Z,13.20
2019-02-06T22:33:13.695Z,13.60
2019-02-06T22:35:42.650Z,12.83
2019-02-06T22:38:11.582Z,14.70
2019-02-06T22:40:40.392Z,15.17
2019-02-06T22:43:10.167Z,14.57
2019-02-06T22:45:39.074Z,14.40
2019-02-06T22:48:08.001Z,14.03
2019-02-06T22:50:36.817Z,14.90
2019-02-06T22:53:05.704Z,14.53
2019-02-06T22:55:34.621Z,15.70
2019-02-06T22:58:03.549Z,14.40
2019-02-06T23:00:42.727Z,14.53
2019-02-06T23:03:11.573Z,15.57
2019-02-06T23:05:40.443Z,15.43
2019-02-06T23:08:09.218Z,16.97
2019-02-06T23:10:38.066Z,15.57
2019-02-06T23:13:07.681Z,16.03
2019-02-06T23:15:37.031Z,15.67
2019-02-06T23:18:05.954Z,15.73
2019-02-06T23:20:34.951Z,14.90
2019-02-06T23:23:03.829Z,16.27
2019-02-06T23:25:32.741Z,16.50
2019-02-06T23:28:01.634Z,16.17
2019-02-06T23:30:30.869Z,15.47
2019-02-06T23:32:59.784Z,15.77
2019-02-06T23:35:28.626Z,15.83
2019-02-06T23:37:57.368Z,16.27
2019-02-06T23:40:26.383Z,15.40
2019-02-06T23:42:55.191Z,16.60
2019-02-06T23:45:24.401Z,15.63
2019-02-06T23:47:53.284Z,16.23
2019-02-06T23:50:22.216Z,16.43
2019-02-06T23:52:51.019Z,16.60
2019-02-06T23:55:19.921Z,15.43
2019-02-06T23:57:48.760Z,16.13
